KTIK

UTC

Tinker Air Force Base

Oklahoma City, Oklahoma, United States

METAR - Current

KTIK 010855Z AUTO 18004KT 10SM CLR 21/16 A3008 RMK AO2 SLP179 T02110156 52010 $

Observed

Oct 01 08:55 UTC

Flight Rules

VFR

Wind

180° at 4 KTS

Visibility

10 SM

Clouds

  • Clear skies

Temperature

21°C=70°F

Dew Point

16°C=61°F

Humidity

73%

Altimeter

30.08 Hg

Pressure

1019.0 hPa

METAR - Previous

KTIK 010755Z AUTO 17004KT 10SM CLR 21/15 A3007 RMK AO2 SLP175 T02090154 $

Observed

Oct 01 07:55 UTC

Flight Rules

VFR

Wind

170° at 4 KTS

Visibility

10 SM

Clouds

  • Clear skies

Temperature

21°C=70°F

Dew Point

15°C=59°F

Humidity

69%

Altimeter

30.07 Hg

Pressure

1018.0 hPa